Flight Track Log - Related Links

Times and Time Zones

All times are in EDT time to prevent confusion due to time zone crossing. See the FD412 flight status page for this flight to view local times or setup timezone preferences in your user account.

Time Position Orientation Groundspeed Altitude Reporting Facility
EDT Latitude Longitude Course Direction KTS MPH feet Rate Location/Type
Sat 02:48:00 AM -21.0496 149.0235 310° West  Level FlightAware Approximate
Sat 02:49:00 AM -21.0089 148.9715 310° West  Level FlightAware Approximate
Sat 02:50:00 AM -20.9682 148.9195 310° West  Level FlightAware Approximate
Sat 02:51:00 AM -20.9274 148.8675 310° West  Level FlightAware Approximate
Sat 02:52:00 AM -20.8867 148.8156 310° West  Level FlightAware Approximate
Sat 02:53:00 AM -20.8459 148.7637 310° West  Level FlightAware Approximate
Sat 02:54:00 AM -20.8051 148.7118 310° West  Level FlightAware Approximate
Sat 02:55:00 AM -20.7643 148.6599 310° West  Level FlightAware Approximate
Sat 02:56:00 AM -20.7235 148.6081 310° West  Level FlightAware Approximate
Sat 02:57:00 AM -20.6826 148.5563 310° West  Level FlightAware Approximate
Sat 02:58:00 AM -20.6418 148.5045 310° West  Level FlightAware Approximate
Sat 02:59:00 AM -20.5977 148.4487 310° West  Level FlightAware Approximate
Sat 03:00:00 AM -20.5569 148.3970 310° West  Level FlightAware Approximate
Sat 03:00:28 AM -20.7370 148.6280 310° West 189 217 20,000  Level FlightAware ADS-B
Sat 03:01:00 AM -20.5161 148.3452 310° West  Level FlightAware Approximate
Sat 03:01:19 AM -20.7000 148.5800 309° West 234 269 19,200  Level FlightAware ADS-B
Sat 03:02:12 AM -20.6840 148.5600 311° West 241 277 18,800 -273 Descending FlightAware ADS-B
Sat 03:02:47 AM -20.6630 148.5330 310° West 241 277 18,800  Level FlightAware ADS-B
Sat 03:03:36 AM -20.6330 148.4950 310° West 241 277 18,800  Level FlightAware ADS-B
Sat 03:04:12 AM -20.6110 148.4670 310° West 241 277 18,800  Level FlightAware ADS-B
Sat 03:05:00 AM -20.5820 148.4300 310° West 241 277 18,800 -1,321 Level FlightAware ADS-B
Sat 03:05:43 AM -20.5160 148.3450 310° West 15,100 -1,694 Descending FlightAware ADS-B
Sat 03:07:50 AM -20.4090 148.2090 310° West 231 266 14,000 -405 Descending FlightAware ADS-B
Sat 03:08:26 AM -20.3830 148.1770 311° West 229 264 14,000  Level FlightAware ADS-B
Sat 03:09:11 AM -20.3560 148.1430 310° West 227 261 14,000  Level FlightAware ADS-B
Sat 03:09:57 AM -20.3220 148.0990 309° West 227 261 14,000  Level FlightAware ADS-B
Sat 03:10:34 AM -20.2960 148.0670 311° West 227 261 14,000  Level FlightAware ADS-B
Sat 03:11:31 AM -20.2630 148.0250 310° West 229 264 14,000  Level FlightAware ADS-B
Sat 03:12:29 AM -20.2220 147.9740 311° West 229 264 14,000  Level FlightAware ADS-B
Sat 03:13:05 AM -20.2020 147.9480 309° West 229 264 14,000  Level FlightAware ADS-B
Sat 03:14:08 AM -20.1530 147.8880 311° West 228 262 14,000  Level FlightAware ADS-B
Sat 03:14:44 AM -20.1290 147.8570 310° West 229 264 14,000  Level FlightAware ADS-B
Sat 03:15:51 AM -20.0800 147.7950 310° West 227 261 14,000  Level FlightAware ADS-B
Sat 03:17:05 AM -20.0300 147.7330 311° West 230 265 14,000  Level FlightAware ADS-B
Sat 03:17:40 AM -20.0090 147.7070 311° West 231 266 14,000  Level FlightAware ADS-B
Sat 03:18:28 AM -19.9730 147.6610 310° West 230 265 14,000  Level FlightAware ADS-B
Sat 03:19:10 AM -19.9450 147.6270 311° West 231 266 14,000  Level FlightAware ADS-B
Sat 03:19:54 AM -19.9410 147.6210 305° West 231 266 14,000  Level FlightAware ADS-B
Sat 03:20:38 AM -19.9150 147.5890 311° West 231 266 14,000  Level FlightAware ADS-B
Sat 03:21:14 AM -19.8940 147.5620 310° West 231 266 14,000  Level FlightAware ADS-B
Sat 03:21:57 AM -19.8270 147.4800 311° West 14,000  Level FlightAware ADS-B
Sat 03:22:40 AM -19.8010 147.4470 310° West 231 266 14,000  Level FlightAware ADS-B
Sat 03:23:35 AM -19.7620 147.3980 310° West 230 265 14,000  Level FlightAware ADS-B
Sat 03:24:12 AM -19.7410 147.3710 310° West 230 265 14,000  Level FlightAware ADS-B
Sat 03:25:00 AM -19.7130 147.3360 310° West 230 265 14,000  Level FlightAware ADS-B
Sat 03:27:00 AM -19.6305 147.2339 311° West  Level FlightAware Approximate
Sat 03:28:00 AM -19.5892 147.1828 311° West  Level FlightAware Approximate
Sat 03:29:00 AM -19.5479 147.1318 311° West  Level FlightAware Approximate
Sat 03:30:00 AM -19.5066 147.0808 311° West  Level FlightAware Approximate
Sat 03:31:00 AM -19.4652 147.0299 311° West  Level FlightAware Approximate
Sat 03:32:00 AM -19.4239 146.9790 311° West  Level FlightAware Approximate
Sat 03:33:00 AM -19.3825 146.9281 311° West  Level FlightAware Approximate
Sat 03:34:00 AM -19.3412 146.8772 311° West  Level FlightAware Approximate
Sat 03:35:00 AM -19.2998 146.8263 311° West  Level FlightAware Approximate
Sat 03:36:00 AM -19.2584 146.7755 311° West  Level FlightAware Approximate
Sat 03:37:00 AM -19.2525 146.7653 310° West  Level Estimated
Sat 03:38:00 AM -19.2525 146.7653 310° West  Level Estimated
Sat 03:39:00 AM -19.2525 146.7653 310° West  Level Estimated
Sat 03:40:00 AM -19.2525 146.7653 310° West  Level Estimated
Sat 03:41:00 AM -19.2525 146.7653 310° West  Level Estimated
Sat 03:42:00 AM -19.2525 146.7653 310° West  Level Estimated
Sat 03:43:00 AM -19.2525 146.7653 310° West  Level Estimated
Sat 03:44:00 AM -19.2525 146.7653 310° West  Level Estimated
Sat 03:45:00 AM -19.2525 146.7653 310° West  Level Estimated
Sat 03:46:00 AM -19.2525 146.7653 310° West  Level Estimated
Sat 03:47:00 AM -19.2525 146.7653 310° West  Level Estimated
Sat 03:48:00 AM -19.2525 146.7653 310° West  Level Estimated

Login

Don't have an account? Register now (free) for customized features, flight alerts, and more!